Time;durP1;ratioP1;P1;durP2;ratioP2;P2;SDS_P1;SDS_P2;PMS_P1;PMS_P2;Temp;Humidity;BMP_temperature;BMP_pressure;BME280_temperature;BME280_humidity;BME280_pressure;Samples;Min_cycle;Max_cycle;Signal;HPM_P1;HPM_P2
2022/01/18 00:23:34;;;;;;;8.27;5.45;;;;;;;;;;4260887;33;20197;-63
2022/01/18 00:26:00;;;;;;;5.47;4.43;;;;;;;;;;4256447;33;20130;-67
2022/01/18 00:28:28;;;;;;;6.43;5.05;;;;;;;;;;4261275;33;20108;-67
2022/01/18 00:33:49;;;;;;;5.82;4.82;;;;;;;;;;4260828;33;20084;-68
2022/01/18 00:38:51;;;;;;;7.00;5.12;;;;;;;;;;4260808;33;20441;-68
2022/01/18 00:41:19;;;;;;;6.90;5.12;;;;;;;;;;4247735;33;20508;-67
2022/01/18 00:43:45;;;;;;;6.57;4.85;;;;;;;;;;4247599;33;20108;-68
2022/01/18 00:46:12;;;;;;;8.75;4.47;;;;;;;;;;4247778;33;20095;-67
2022/01/18 00:48:39;;;;;;;8.43;4.85;;;;;;;;;;4260854;33;20204;-68
2022/01/18 00:51:08;;;;;;;7.82;5.05;;;;;;;;;;4260779;33;20202;-68
2022/01/18 00:53:36;;;;;;;6.37;5.22;;;;;;;;;;4260803;33;20563;-69
2022/01/18 00:56:17;;;;;;;8.10;4.95;;;;;;;;;;4239309;33;20183;-64
2022/01/18 00:58:45;;;;;;;6.80;4.87;;;;;;;;;;4246490;33;20571;-64
2022/01/18 01:01:11;;;;;;;6.32;4.85;;;;;;;;;;4244997;33;20129;-63
2022/01/18 01:03:38;;;;;;;6.12;4.50;;;;;;;;;;4245071;33;20124;-64
2022/01/18 01:06:04;;;;;;;6.30;4.60;;;;;;;;;;4233356;33;20105;-64
2022/01/18 01:08:31;;;;;;;7.60;4.75;;;;;;;;;;4246448;33;20425;-64
2022/01/18 01:10:57;;;;;;;6.00;4.85;;;;;;;;;;4245416;33;20128;-64
2022/01/18 01:13:24;;;;;;;6.12;4.70;;;;;;;;;;4233198;33;20558;-63
2022/01/18 01:19:02;;;;;;;7.35;4.18;;;;;;;;;;4246478;33;20120;-65
2022/01/18 01:46:05;;;;;;;6.78;5.32;;;;;;;;;;4249064;33;20124;-65
2022/01/18 01:48:31;;;;;;;5.43;4.47;;;;;;;;;;4260205;33;20536;-65
2022/01/18 01:51:05;;;;;;;5.32;4.03;;;;;;;;;;4260172;33;20139;-65
2022/01/18 01:53:33;;;;;;;6.00;5.05;;;;;;;;;;4247781;33;20115;-64
2022/01/18 01:55:59;;;;;;;5.82;5.18;;;;;;;;;;4259909;33;20127;-62
2022/01/18 01:58:26;;;;;;;5.90;4.62;;;;;;;;;;4247020;33;20453;-64
2022/01/18 02:00:54;;;;;;;8.15;5.20;;;;;;;;;;4260212;33;20190;-64
2022/01/18 02:03:21;;;;;;;5.62;4.25;;;;;;;;;;4260216;33;20088;-64
2022/01/18 02:05:47;;;;;;;5.22;3.12;;;;;;;;;;4260161;33;20537;-64
2022/01/18 02:08:14;;;;;;;5.03;3.83;;;;;;;;;;4247096;33;20101;-64
2022/01/18 02:10:41;;;;;;;7.47;4.10;;;;;;;;;;4259790;33;20128;-65
2022/01/18 02:13:11;;;;;;;6.60;3.95;;;;;;;;;;4259743;33;20088;-64
2022/01/18 02:15:41;;;;;;;5.32;4.70;;;;;;;;;;4246961;33;20108;-63
2022/01/18 02:23:37;;;;;;;4.40;3.83;;;;;;;;;;4261994;33;20112;-65
2022/01/18 02:26:04;;;;;;;4.40;3.58;;;;;;;;;;4248831;33;20090;-64
2022/01/18 02:28:31;;;;;;;5.03;3.53;;;;;;;;;;4249133;33;20093;-65
2022/01/18 02:30:57;;;;;;;4.78;3.40;;;;;;;;;;4262163;33;20122;-65
2022/01/18 02:33:24;;;;;;;3.80;3.35;;;;;;;;;;4261749;33;20112;-65
2022/01/18 02:35:50;;;;;;;4.70;3.80;;;;;;;;;;4261809;33;20128;-65
2022/01/18 02:38:16;;;;;;;4.00;3.50;;;;;;;;;;4248759;33;20107;-65
2022/01/18 02:40:43;;;;;;;4.97;3.90;;;;;;;;;;4248563;33;20108;-65
2022/01/18 02:45:58;;;;;;;4.05;3.65;;;;;;;;;;4250795;33;20456;-63
2022/01/18 02:48:25;;;;;;;3.67;3.25;;;;;;;;;;4261705;33;20096;-63
2022/01/18 02:50:51;;;;;;;4.28;3.67;;;;;;;;;;4261516;33;20103;-65
2022/01/18 02:53:17;;;;;;;6.40;3.80;;;;;;;;;;4261766;33;20444;-64
2022/01/18 02:55:52;;;;;;;6.72;3.60;;;;;;;;;;4261524;33;20104;-64
2022/01/18 02:58:26;;;;;;;4.25;3.70;;;;;;;;;;4249080;33;20517;-64
2022/01/18 03:03:36;;;;;;;6.05;4.80;;;;;;;;;;4261305;33;20121;-64
2022/01/18 03:06:07;;;;;;;4.75;3.70;;;;;;;;;;4261257;33;20131;-64
2022/01/18 03:08:33;;;;;;;4.30;3.30;;;;;;;;;;4248745;33;20080;-65
2022/01/18 03:11:00;;;;;;;4.40;3.87;;;;;;;;;;4261460;33;20135;-63
2022/01/18 03:13:27;;;;;;;3.70;3.15;;;;;;;;;;4261580;33;20132;-64
2022/01/18 03:15:53;;;;;;;4.45;3.80;;;;;;;;;;4261396;33;20199;-64
2022/01/18 03:18:19;;;;;;;4.03;3.33;;;;;;;;;;4261227;33;20104;-63
2022/01/18 03:20:46;;;;;;;5.07;3.25;;;;;;;;;;4261341;33;20111;-63
2022/01/18 03:23:17;;;;;;;4.00;3.60;;;;;;;;;;4248232;33;20519;-63
2022/01/18 03:25:56;;;;;;;4.75;3.42;;;;;;;;;;4261431;33;20529;-64
2022/01/18 03:28:23;;;;;;;4.37;3.33;;;;;;;;;;4261743;33;20536;-64
2022/01/18 03:30:53;;;;;;;4.60;3.58;;;;;;;;;;4261216;33;20476;-64
2022/01/18 03:33:21;;;;;;;3.85;3.30;;;;;;;;;;4260791;33;20128;-64
2022/01/18 03:35:49;;;;;;;4.75;3.35;;;;;;;;;;4261250;33;20124;-63
2022/01/18 03:38:15;;;;;;;4.70;3.25;;;;;;;;;;4261371;33;20104;-64
2022/01/18 03:40:41;;;;;;;4.40;3.70;;;;;;;;;;4261348;33;20108;-64
2022/01/18 03:43:11;;;;;;;3.83;3.05;;;;;;;;;;4261533;33;20108;-64
2022/01/18 03:45:41;;;;;;;4.75;3.67;;;;;;;;;;4261255;33;20111;-64
2022/01/18 03:48:13;;;;;;;4.25;3.05;;;;;;;;;;4261209;33;20095;-66
2022/01/18 03:50:39;;;;;;;3.35;3.05;;;;;;;;;;4261253;33;20250;-66
2022/01/18 03:53:05;;;;;;;3.33;2.62;;;;;;;;;;4248599;33;20118;-67
2022/01/18 03:55:32;;;;;;;4.55;3.58;;;;;;;;;;4261560;33;20476;-61
2022/01/18 03:57:58;;;;;;;4.25;2.87;;;;;;;;;;4261356;33;20216;-60
2022/01/18 04:00:25;;;;;;;3.47;3.17;;;;;;;;;;4261124;33;20140;-60
2022/01/18 04:02:52;;;;;;;3.72;3.40;;;;;;;;;;4261302;33;20104;-59
2022/01/18 04:05:19;;;;;;;4.45;3.67;;;;;;;;;;4260753;33;20128;-60
2022/01/18 04:07:47;;;;;;;4.15;3.50;;;;;;;;;;4260989;33;20211;-60
2022/01/18 04:10:13;;;;;;;3.62;3.30;;;;;;;;;;4261110;33;20104;-60
2022/01/18 04:12:40;;;;;;;4.68;3.33;;;;;;;;;;4261009;33;20190;-60
2022/01/18 04:15:08;;;;;;;4.60;3.47;;;;;;;;;;4259818;33;20116;-60
2022/01/18 04:25:55;;;;;;;4.87;3.15;;;;;;;;;;4246737;33;20136;-61
2022/01/18 04:31:06;;;;;;;5.15;3.40;;;;;;;;;;4259537;33;20112;-61
2022/01/18 04:33:32;;;;;;;3.70;3.40;;;;;;;;;;4258778;33;20464;-61
2022/01/18 04:35:59;;;;;;;5.50;4.00;;;;;;;;;;4258674;33;20816;-60
2022/01/18 04:38:25;;;;;;;3.62;2.90;;;;;;;;;;4258784;33;20117;-61
2022/01/18 04:40:51;;;;;;;3.90;3.47;;;;;;;;;;4258599;33;20092;-60
2022/01/18 04:43:27;;;;;;;3.72;3.20;;;;;;;;;;4258813;33;20119;-59
2022/01/18 04:48:39;;;;;;;3.45;3.15;;;;;;;;;;4260850;33;20507;-60
2022/01/18 04:51:10;;;;;;;3.45;3.10;;;;;;;;;;4260584;33;20117;-59
2022/01/18 04:53:47;;;;;;;5.03;3.05;;;;;;;;;;4260672;33;20532;-61
2022/01/18 04:56:16;;;;;;;3.55;3.10;;;;;;;;;;4260690;33;20132;-59
2022/01/18 04:58:43;;;;;;;4.62;3.40;;;;;;;;;;4260664;33;20128;-61
2022/01/18 05:01:10;;;;;;;4.35;3.20;;;;;;;;;;4247470;33;20536;-59
2022/01/18 05:03:36;;;;;;;3.67;3.33;;;;;;;;;;4260800;33;20136;-67
2022/01/18 05:06:08;;;;;;;3.58;3.28;;;;;;;;;;4247960;33;20135;-66
2022/01/18 05:08:36;;;;;;;5.10;3.22;;;;;;;;;;4248608;33;20112;-67
2022/01/18 05:11:02;;;;;;;2.90;2.55;;;;;;;;;;4260452;33;20136;-67
2022/01/18 05:21:32;;;;;;;4.15;3.12;;;;;;;;;;4260504;33;20516;-65
2022/01/18 05:24:02;;;;;;;3.75;3.17;;;;;;;;;;4273116;33;20187;-65
2022/01/18 05:26:29;;;;;;;4.45;2.85;;;;;;;;;;4274672;33;20119;-65
2022/01/18 05:28:57;;;;;;;4.60;3.40;;;;;;;;;;4273145;33;20109;-65
2022/01/18 05:31:24;;;;;;;3.50;3.17;;;;;;;;;;4274556;33;20108;-65
2022/01/18 05:33:50;;;;;;;5.93;3.47;;;;;;;;;;4274578;33;20104;-64
2022/01/18 05:36:16;;;;;;;4.30;3.40;;;;;;;;;;4274462;33;20150;-64
2022/01/18 05:38:42;;;;;;;4.62;3.28;;;;;;;;;;4274518;33;20112;-65
2022/01/18 05:41:10;;;;;;;4.12;3.00;;;;;;;;;;4267365;33;20111;-63
2022/01/18 05:43:36;;;;;;;5.37;4.00;;;;;;;;;;4252355;33;20097;-65
2022/01/18 05:46:03;;;;;;;5.68;3.60;;;;;;;;;;4230783;33;20182;-64
2022/01/18 05:48:30;;;;;;;3.75;3.45;;;;;;;;;;4259955;33;20089;-65
2022/01/18 05:50:59;;;;;;;5.28;3.92;;;;;;;;;;4246740;33;20100;-63
2022/01/18 05:53:30;;;;;;;4.32;3.47;;;;;;;;;;4258822;33;20112;-64
2022/01/18 05:56:00;;;;;;;5.18;4.45;;;;;;;;;;4246991;33;20128;-64
2022/01/18 05:58:26;;;;;;;4.05;3.62;;;;;;;;;;4262047;33;20116;-64
2022/01/18 06:00:53;;;;;;;4.07;3.37;;;;;;;;;;4248756;33;20100;-65
2022/01/18 06:03:28;;;;;;;4.07;3.53;;;;;;;;;;4261920;33;20104;-66
2022/01/18 06:08:40;;;;;;;4.05;3.25;;;;;;;;;;4261844;33;20121;-69
2022/01/18 06:11:06;;;;;;;3.47;3.17;;;;;;;;;;4261784;33;20122;-65
2022/01/18 06:13:32;;;;;;;5.78;3.65;;;;;;;;;;4261623;33;20109;-65
2022/01/18 06:15:58;;;;;;;6.78;2.75;;;;;;;;;;4261904;33;20187;-65
2022/01/18 06:18:24;;;;;;;3.87;3.22;;;;;;;;;;4262247;33;20201;-69
2022/01/18 06:20:50;;;;;;;3.17;2.87;;;;;;;;;;4262001;33;20184;-60
2022/01/18 06:23:17;;;;;;;3.95;3.25;;;;;;;;;;4270491;33;20425;-61
2022/01/18 06:25:43;;;;;;;4.32;2.97;;;;;;;;;;4276227;33;20180;-61
2022/01/18 06:28:09;;;;;;;3.35;3.00;;;;;;;;;;4276255;33;20116;-60
2022/01/18 06:30:35;;;;;;;3.10;2.80;;;;;;;;;;4276343;33;20100;-61
2022/01/18 06:33:01;;;;;;;2.87;2.58;;;;;;;;;;4256952;33;20136;-60
2022/01/18 06:35:27;;;;;;;4.90;2.92;;;;;;;;;;4261806;33;20440;-60
2022/01/18 06:37:53;;;;;;;3.35;2.80;;;;;;;;;;4249536;33;20551;-59
2022/01/18 06:40:20;;;;;;;3.33;2.62;;;;;;;;;;4247711;33;20127;-60
2022/01/18 06:42:46;;;;;;;3.20;2.65;;;;;;;;;;4247145;33;20112;-60
2022/01/18 06:45:12;;;;;;;3.45;2.83;;;;;;;;;;4247490;33;20140;-60
2022/01/18 06:47:38;;;;;;;3.25;2.70;;;;;;;;;;4247151;33;20472;-60
2022/01/18 06:50:06;;;;;;;2.87;2.47;;;;;;;;;;4261098;33;20140;-61
2022/01/18 06:52:32;;;;;;;3.20;2.67;;;;;;;;;;4260842;33;20120;-61
2022/01/18 06:54:58;;;;;;;3.42;3.12;;;;;;;;;;4261411;33;20206;-61
2022/01/18 06:57:24;;;;;;;3.55;2.83;;;;;;;;;;4261276;33;20116;-61
2022/01/18 06:59:50;;;;;;;3.15;2.65;;;;;;;;;;4248311;33;20120;-61
2022/01/18 07:02:16;;;;;;;2.83;2.62;;;;;;;;;;4261037;33;20113;-61
2022/01/18 07:04:42;;;;;;;3.20;2.85;;;;;;;;;;4261463;33;20095;-60
2022/01/18 07:07:08;;;;;;;5.90;2.80;;;;;;;;;;4260924;33;20108;-61
2022/01/18 07:09:35;;;;;;;2.65;2.40;;;;;;;;;;4260366;33;20608;-61
2022/01/18 07:12:07;;;;;;;5.22;3.15;;;;;;;;;;4260990;33;20200;-60
2022/01/18 07:14:34;;;;;;;3.20;2.90;;;;;;;;;;4260858;33;20188;-60
2022/01/18 07:17:00;;;;;;;3.67;2.90;;;;;;;;;;4261023;33;20195;-61
2022/01/18 07:19:26;;;;;;;3.33;2.70;;;;;;;;;;4260970;33;20112;-61
2022/01/18 07:21:52;;;;;;;3.00;2.55;;;;;;;;;;4261001;33;20093;-61
2022/01/18 07:24:35;;;;;;;4.40;2.67;;;;;;;;;;4261261;33;20112;-60
2022/01/18 07:27:02;;;;;;;2.72;2.53;;;;;;;;;;4260478;33;20105;-61
2022/01/18 07:29:28;;;;;;;3.15;2.70;;;;;;;;;;4260846;33;20097;-60
2022/01/18 07:31:54;;;;;;;2.90;2.50;;;;;;;;;;4260832;33;20476;-61
2022/01/18 07:34:20;;;;;;;3.00;2.60;;;;;;;;;;4260960;33;20496;-61
2022/01/18 07:36:46;;;;;;;3.60;2.55;;;;;;;;;;4260881;33;20518;-60
2022/01/18 07:39:12;;;;;;;2.90;2.40;;;;;;;;;;4260755;33;20112;-60
2022/01/18 07:41:38;;;;;;;2.90;2.58;;;;;;;;;;4255863;33;20113;-61
2022/01/18 07:44:05;;;;;;;2.75;2.53;;;;;;;;;;4256831;33;20449;-59
2022/01/18 07:46:31;;;;;;;3.80;2.83;;;;;;;;;;4256628;33;20496;-61
2022/01/18 07:48:57;;;;;;;4.10;3.03;;;;;;;;;;4246906;33;20208;-61
2022/01/18 07:51:23;;;;;;;3.05;2.75;;;;;;;;;;4246043;33;20101;-60
2022/01/18 07:53:49;;;;;;;2.62;2.42;;;;;;;;;;4245829;33;20136;-60
2022/01/18 07:56:15;;;;;;;3.30;3.00;;;;;;;;;;4248572;33;20127;-61
2022/01/18 07:58:41;;;;;;;2.90;2.62;;;;;;;;;;4260875;33;20183;-61
2022/01/18 08:01:07;;;;;;;3.10;2.80;;;;;;;;;;4259462;33;20116;-60
2022/01/18 08:03:33;;;;;;;2.83;2.53;;;;;;;;;;4260631;33;20128;-61
2022/01/18 08:06:00;;;;;;;4.75;2.90;;;;;;;;;;4260356;33;20125;-61
2022/01/18 08:08:26;;;;;;;3.28;2.90;;;;;;;;;;4246842;33;20096;-60
2022/01/18 08:10:53;;;;;;;4.00;3.17;;;;;;;;;;4246502;33;20101;-60
2022/01/18 08:13:24;;;;;;;2.60;2.40;;;;;;;;;;4246636;33;20615;-60
2022/01/18 08:15:58;;;;;;;3.05;2.70;;;;;;;;;;4246159;33;20112;-61
2022/01/18 08:18:24;;;;;;;3.85;3.08;;;;;;;;;;4222148;33;20212;-61
2022/01/18 08:20:50;;;;;;;3.42;2.78;;;;;;;;;;4246227;33;20121;-60
2022/01/18 08:23:16;;;;;;;3.75;3.28;;;;;;;;;;4263676;33;20575;-60
2022/01/18 08:25:44;;;;;;;3.33;3.00;;;;;;;;;;4274869;33;20118;-59
2022/01/18 08:28:10;;;;;;;4.95;2.20;;;;;;;;;;4248145;33;20140;-60
2022/01/18 08:30:36;;;;;;;2.70;2.45;;;;;;;;;;4246479;33;20524;-61
2022/01/18 08:33:02;;;;;;;3.90;3.15;;;;;;;;;;4246466;33;20095;-61
2022/01/18 08:35:29;;;;;;;3.15;1.80;;;;;;;;;;4246775;33;20093;-61
2022/01/18 08:37:55;;;;;;;5.68;3.00;;;;;;;;;;4246452;33;20125;-61
2022/01/18 08:40:21;;;;;;;3.95;3.00;;;;;;;;;;4246126;33;20105;-61
2022/01/18 08:42:47;;;;;;;2.97;2.65;;;;;;;;;;4237771;33;20111;-60
2022/01/18 08:45:13;;;;;;;4.57;3.08;;;;;;;;;;4259883;33;20507;-61
2022/01/18 08:47:39;;;;;;;3.75;3.05;;;;;;;;;;4259610;33;20136;-61
2022/01/18 08:50:06;;;;;;;3.62;2.78;;;;;;;;;;4260494;33;20109;-60
2022/01/18 08:52:33;;;;;;;2.75;2.55;;;;;;;;;;4247445;33;20116;-60
2022/01/18 08:54:59;;;;;;;3.87;2.92;;;;;;;;;;4260305;33;20128;-61
2022/01/18 08:57:25;;;;;;;3.25;2.95;;;;;;;;;;4247230;33;20125;-60
2022/01/18 08:59:52;;;;;;;4.28;2.37;;;;;;;;;;4247481;33;20568;-60
2022/01/18 09:02:19;;;;;;;3.15;2.60;;;;;;;;;;4260252;33;20208;-61
2022/01/18 09:04:46;;;;;;;3.40;2.70;;;;;;;;;;4260352;33;20104;-60
2022/01/18 09:07:12;;;;;;;5.37;4.12;;;;;;;;;;4260438;33;20611;-61
2022/01/18 09:09:40;;;;;;;2.55;2.35;;;;;;;;;;4260301;33;20104;-61
2022/01/18 09:12:08;;;;;;;6.80;2.70;;;;;;;;;;4260381;33;20508;-61
2022/01/18 09:14:34;;;;;;;2.65;2.45;;;;;;;;;;4260108;33;20204;-61
2022/01/18 09:17:00;;;;;;;2.83;2.42;;;;;;;;;;4260243;33;20206;-60
2022/01/18 09:19:26;;;;;;;3.00;2.70;;;;;;;;;;4260253;33;20132;-61
2022/01/18 09:21:52;;;;;;;5.10;3.78;;;;;;;;;;4260515;33;20115;-60
2022/01/18 09:24:18;;;;;;;3.33;2.70;;;;;;;;;;4274680;33;20531;-62
2022/01/18 09:26:44;;;;;;;4.70;3.80;;;;;;;;;;4274662;33;20120;-62
2022/01/18 09:29:11;;;;;;;2.25;2.05;;;;;;;;;;4274611;33;20131;-62
2022/01/18 09:31:38;;;;;;;4.32;2.67;;;;;;;;;;4274017;33;20111;-62
2022/01/18 09:34:05;;;;;;;3.10;2.70;;;;;;;;;;4274558;33;20456;-62
2022/01/18 09:36:31;;;;;;;3.25;2.75;;;;;;;;;;4261210;33;20463;-61
2022/01/18 09:38:58;;;;;;;3.75;2.92;;;;;;;;;;4274568;33;20131;-62
2022/01/18 09:41:31;;;;;;;2.87;2.47;;;;;;;;;;4261385;33;20120;-60
2022/01/18 09:43:57;;;;;;;4.18;2.30;;;;;;;;;;4261983;33;20099;-61
2022/01/18 09:46:26;;;;;;;3.92;3.40;;;;;;;;;;4274480;33;20139;-61
2022/01/18 09:48:53;;;;;;;3.15;2.85;;;;;;;;;;4274754;33;20104;-62
2022/01/18 09:51:20;;;;;;;2.55;2.35;;;;;;;;;;4274564;33;20104;-62
2022/01/18 09:53:46;;;;;;;2.85;2.10;;;;;;;;;;4274442;33;20108;-62
2022/01/18 09:56:12;;;;;;;2.80;2.50;;;;;;;;;;4274383;33;20742;-62
2022/01/18 09:58:38;;;;;;;3.90;2.40;;;;;;;;;;4274352;33;20445;-64
2022/01/18 10:01:04;;;;;;;3.12;2.83;;;;;;;;;;4274582;33;20103;-64
2022/01/18 10:03:38;;;;;;;3.35;2.90;;;;;;;;;;4274139;33;20085;-62
2022/01/18 10:06:06;;;;;;;4.45;2.50;;;;;;;;;;4274105;33;20127;-64
2022/01/18 10:08:33;;;;;;;4.20;3.78;;;;;;;;;;4274262;33;20112;-64
2022/01/18 10:11:14;;;;;;;2.58;2.20;;;;;;;;;;4273825;33;20130;-61
2022/01/18 10:13:41;;;;;;;12.70;2.00;;;;;;;;;;4272753;33;20229;-61
2022/01/18 10:16:20;;;;;;;2.15;1.77;;;;;;;;;;4272582;33;20109;-61
2022/01/18 10:18:48;;;;;;;1.80;1.70;;;;;;;;;;4272438;33;20536;-62
2022/01/18 10:21:23;;;;;;;2.22;2.00;;;;;;;;;;4272837;33;20127;-62
2022/01/18 10:23:49;;;;;;;;;;;;;;;;;;4273280;33;20424;-61
2022/01/18 10:26:19;;;;;;;1.98;1.77;;;;;;;;;;4272770;33;19991;-61
2022/01/18 10:28:45;;;;;;;2.12;1.92;;;;;;;;;;4272792;33;20183;-62
2022/01/18 10:31:36;;;;;;;2.22;1.92;;;;;;;;;;4259281;33;20151;-61
2022/01/18 10:34:40;;;;;;;2.25;1.98;;;;;;;;;;4272554;33;20606;-62
2022/01/18 10:37:13;;;;;;;2.10;1.90;;;;;;;;;;4272633;33;20187;-61
2022/01/18 10:39:50;;;;;;;1.73;1.62;;;;;;;;;;4272524;33;20519;-62
2022/01/18 10:42:17;;;;;;;1.52;1.33;;;;;;;;;;4273094;33;20135;-61
2022/01/18 10:44:48;;;;;;;2.05;1.73;;;;;;;;;;4274755;33;20543;-61
2022/01/18 10:47:16;;;;;;;1.80;1.70;;;;;;;;;;4274899;33;20449;-61
2022/01/18 10:49:46;;;;;;;3.30;1.83;;;;;;;;;;4274826;33;20103;-61
2022/01/18 10:52:18;;;;;;;2.03;1.87;;;;;;;;;;4275030;33;20128;-61
2022/01/18 10:54:49;;;;;;;2.33;1.90;;;;;;;;;;4275807;33;20128;-61
2022/01/18 10:57:21;;;;;;;2.10;1.90;;;;;;;;;;4275948;33;20148;-61
2022/01/18 10:59:48;;;;;;;1.90;1.75;;;;;;;;;;4276068;33;20190;-61
2022/01/18 11:02:20;;;;;;;2.35;1.98;;;;;;;;;;4275993;33;20116;-61
2022/01/18 11:04:53;;;;;;;1.62;1.52;;;;;;;;;;4275960;33;20104;-61
2022/01/18 11:07:24;;;;;;;1.80;1.70;;;;;;;;;;4275918;33;20104;-61
2022/01/18 11:09:51;;;;;;;1.95;1.70;;;;;;;;;;4262760;33;20100;-62
2022/01/18 11:12:25;;;;;;;1.83;1.70;;;;;;;;;;4275807;33;20107;-61
2022/01/18 11:15:03;;;;;;;2.00;1.83;;;;;;;;;;4275735;33;20103;-62
2022/01/18 11:17:38;;;;;;;2.65;2.00;;;;;;;;;;4275718;33;20142;-61
2022/01/18 11:20:05;;;;;;;2.33;1.83;;;;;;;;;;4275610;33;20118;-62
2022/01/18 11:22:32;;;;;;;2.35;1.77;;;;;;;;;;4275578;33;20104;-61
2022/01/18 11:24:59;;;;;;;2.10;1.92;;;;;;;;;;4275559;33;20457;-61
2022/01/18 11:27:28;;;;;;;1.70;1.60;;;;;;;;;;4262316;33;20203;-61
2022/01/18 11:29:54;;;;;;;2.28;2.08;;;;;;;;;;4275532;33;20112;-61
2022/01/18 11:32:24;;;;;;;1.95;1.70;;;;;;;;;;4275647;33;20095;-62
2022/01/18 11:35:11;;;;;;;1.83;1.67;;;;;;;;;;4262471;33;20116;-61
2022/01/18 11:37:59;;;;;;;1.70;1.60;;;;;;;;;;4275890;33;20535;-61
2022/01/18 11:40:27;;;;;;;1.92;1.83;;;;;;;;;;4275835;33;20115;-61
2022/01/18 11:42:57;;;;;;;1.90;1.70;;;;;;;;;;4275433;33;20202;-61
2022/01/18 11:45:29;;;;;;;2.80;1.80;;;;;;;;;;4275445;33;20096;-61
2022/01/18 11:47:59;;;;;;;1.77;1.67;;;;;;;;;;4275686;33;20115;-62
2022/01/18 11:50:34;;;;;;;2.30;1.80;;;;;;;;;;4275090;33;20696;-61
2022/01/18 11:53:29;;;;;;;1.90;1.80;;;;;;;;;;4275253;33;20146;-67
2022/01/18 11:56:00;;;;;;;2.62;2.10;;;;;;;;;;4275056;33;20131;-67
2022/01/18 11:58:27;;;;;;;2.50;2.30;;;;;;;;;;4275386;33;20562;-67
2022/01/18 12:00:56;;;;;;;2.28;2.00;;;;;;;;;;4275177;33;20111;-68
2022/01/18 12:03:28;;;;;;;2.20;2.00;;;;;;;;;;4275474;33;20444;-62
2022/01/18 12:05:55;;;;;;;2.30;2.10;;;;;;;;;;4275161;33;20523;-62
2022/01/18 12:08:33;;;;;;;2.17;1.98;;;;;;;;;;4275245;33;20103;-61
2022/01/18 12:11:01;;;;;;;3.00;2.20;;;;;;;;;;4275178;33;20130;-62
2022/01/18 12:13:38;;;;;;;2.92;2.60;;;;;;;;;;4275205;33;20195;-61
2022/01/18 12:16:19;;;;;;;2.83;2.20;;;;;;;;;;4275108;33;20535;-61
2022/01/18 12:18:52;;;;;;;3.87;2.58;;;;;;;;;;4273765;33;20115;-61
2022/01/18 12:21:27;;;;;;;6.07;4.30;;;;;;;;;;4275189;33;20112;-61
2022/01/18 12:23:56;;;;;;;2.62;2.42;;;;;;;;;;4274956;33;20132;-62
2022/01/18 12:34:30;;;;;;;2.50;2.30;;;;;;;;;;4260223;33;20203;-62
2022/01/18 12:37:26;;;;;;;2.83;2.22;;;;;;;;;;4260720;33;20580;-62
2022/01/18 12:44:20;;;;;;;3.10;2.65;;;;;;;;;;4260061;33;20210;-63
2022/01/18 12:45:19;;;;;;;3.92;3.42;;;;;;;;;;4259592;33;20472;-62
2022/01/18 12:47:51;;;;;;;3.60;3.00;;;;;;;;;;4260426;33;20188;-61
2022/01/18 12:50:21;;;;;;;3.50;2.55;;;;;;;;;;4260371;33;20110;-62
2022/01/18 12:52:57;;;;;;;4.90;2.10;;;;;;;;;;4259153;33;20131;-61
2022/01/18 12:55:46;;;;;;;2.70;2.50;;;;;;;;;;4260268;33;20112;-61
2022/01/18 12:58:20;;;;;;;2.55;2.35;;;;;;;;;;4247109;33;20543;-61
2022/01/18 13:00:49;;;;;;;3.60;2.50;;;;;;;;;;4260028;33;20112;-61
2022/01/18 13:03:26;;;;;;;2.35;2.10;;;;;;;;;;4247029;33;20174;-62
2022/01/18 13:05:57;;;;;;;2.97;2.53;;;;;;;;;;4245421;33;20095;-63
2022/01/18 13:08:38;;;;;;;2.37;1.98;;;;;;;;;;4260104;33;20176;-62
2022/01/18 13:11:04;;;;;;;2.80;2.30;;;;;;;;;;4259983;33;20093;-63
2022/01/18 13:13:32;;;;;;;2.70;2.20;;;;;;;;;;4260235;33;20100;-63
2022/01/18 13:27:37;;;;;;;2.47;2.05;;;;;;;;;;4246219;33;20530;-62
2022/01/18 13:30:11;;;;;;;2.33;2.12;;;;;;;;;;4244789;33;20102;-61
2022/01/18 13:32:38;;;;;;;2.60;2.10;;;;;;;;;;4246046;33;20195;-62
2022/01/18 13:35:05;;;;;;;3.08;2.00;;;;;;;;;;4247923;33;20113;-65
2022/01/18 13:37:34;;;;;;;2.35;1.95;;;;;;;;;;4260057;33;20104;-65
2022/01/18 13:40:09;;;;;;;3.78;2.40;;;;;;;;;;4246450;33;20452;-64
2022/01/18 13:42:47;;;;;;;1.95;1.85;;;;;;;;;;4246633;33;20112;-64
2022/01/18 13:45:25;;;;;;;3.03;2.08;;;;;;;;;;4235234;33;20085;-63
2022/01/18 13:48:06;;;;;;;3.60;2.80;;;;;;;;;;4259965;33;20488;-64
2022/01/18 13:50:59;;;;;;;2.33;2.12;;;;;;;;;;4259417;33;20120;-62
2022/01/18 13:53:30;;;;;;;3.47;2.40;;;;;;;;;;4258688;33;20532;-64
2022/01/18 13:55:57;;;;;;;1.92;1.83;;;;;;;;;;4242817;33;20456;-64
2022/01/18 13:58:24;;;;;;;2.87;2.30;;;;;;;;;;4235594;33;20104;-64
2022/01/18 14:00:50;;;;;;;2.35;1.90;;;;;;;;;;4256426;33;20126;-64
2022/01/18 14:03:34;;;;;;;3.55;2.15;;;;;;;;;;4259505;33;20116;-64
2022/01/18 14:06:00;;;;;;;2.00;1.87;;;;;;;;;;4247354;33;20116;-64
2022/01/18 14:08:34;;;;;;;4.93;4.43;;;;;;;;;;4220788;33;20113;-65
2022/01/18 14:11:02;;;;;;;3.75;3.37;;;;;;;;;;4248777;33;20206;-65
2022/01/18 14:13:36;;;;;;;2.62;2.25;;;;;;;;;;4258571;33;20441;-65
2022/01/18 14:16:20;;;;;;;2.30;2.10;;;;;;;;;;4250737;33;20096;-65
2022/01/18 14:18:58;;;;;;;3.22;2.05;;;;;;;;;;4247086;33;20473;-63
2022/01/18 14:21:39;;;;;;;2.40;2.05;;;;;;;;;;4261393;33;20120;-65
2022/01/18 14:24:18;;;;;;;2.33;2.03;;;;;;;;;;4261256;33;20417;-64
2022/01/18 14:26:53;;;;;;;2.60;2.17;;;;;;;;;;4262114;33;20119;-65
2022/01/18 14:29:40;;;;;;;2.75;2.25;;;;;;;;;;4259784;33;20120;-65
2022/01/18 14:32:12;;;;;;;3.47;2.20;;;;;;;;;;4259614;33;20626;-65
2022/01/18 14:34:42;;;;;;;3.45;3.00;;;;;;;;;;4257520;33;20445;-65
2022/01/18 14:37:10;;;;;;;2.67;2.15;;;;;;;;;;4222658;33;20469;-65
2022/01/18 14:40:00;;;;;;;2.83;2.15;;;;;;;;;;4254995;33;20090;-65
2022/01/18 14:42:35;;;;;;;2.75;2.30;;;;;;;;;;4260616;33;20195;-65
2022/01/18 14:45:08;;;;;;;2.53;1.85;;;;;;;;;;4257005;33;21089;-65
2022/01/18 14:47:34;;;;;;;2.62;2.20;;;;;;;;;;4260581;33;20432;-62
2022/01/18 14:50:07;;;;;;;3.03;2.15;;;;;;;;;;4258323;33;20500;-62
2022/01/18 14:52:33;;;;;;;2.20;2.00;;;;;;;;;;4257917;33;20109;-63
2022/01/18 14:55:00;;;;;;;2.03;1.80;;;;;;;;;;4260888;33;20214;-64
2022/01/18 14:57:27;;;;;;;2.20;2.00;;;;;;;;;;4258054;33;20501;-63
2022/01/18 14:59:53;;;;;;;2.40;2.20;;;;;;;;;;4247048;33;20114;-63
2022/01/18 15:02:19;;;;;;;2.10;1.90;;;;;;;;;;4246805;33;20104;-62
2022/01/18 15:04:45;;;;;;;2.05;1.80;;;;;;;;;;4246927;33;20116;-63
2022/01/18 15:07:11;;;;;;;3.37;2.03;;;;;;;;;;4246755;33;20188;-63
2022/01/18 15:09:38;;;;;;;2.00;1.80;;;;;;;;;;4247073;33;20127;-62
2022/01/18 15:12:05;;;;;;;2.60;1.90;;;;;;;;;;4246902;33;20679;-61
2022/01/18 15:14:34;;;;;;;1.92;1.83;;;;;;;;;;4233960;33;20187;-63
2022/01/18 15:17:01;;;;;;;2.30;2.10;;;;;;;;;;4247037;33;20121;-63
2022/01/18 15:19:27;;;;;;;2.45;1.80;;;;;;;;;;4246764;33;20109;-63
2022/01/18 15:21:54;;;;;;;2.17;1.90;;;;;;;;;;4247318;33;20468;-61
2022/01/18 15:24:20;;;;;;;2.00;1.70;;;;;;;;;;4258202;33;20111;-63
2022/01/18 15:26:46;;;;;;;2.47;2.28;;;;;;;;;;4246693;33;20112;-63
2022/01/18 15:29:12;;;;;;;2.72;2.17;;;;;;;;;;4246008;33;20117;-61
2022/01/18 15:31:39;;;;;;;2.17;1.90;;;;;;;;;;4246602;33;20120;-63
2022/01/18 15:34:05;;;;;;;1.85;1.60;;;;;;;;;;4233968;33;20131;-67
2022/01/18 15:36:31;;;;;;;2.47;1.83;;;;;;;;;;4234321;33;20200;-68
2022/01/18 15:38:57;;;;;;;1.92;1.83;;;;;;;;;;4246755;33;20113;-67
2022/01/18 15:41:23;;;;;;;2.10;1.90;;;;;;;;;;4233483;33;20121;-67
2022/01/18 15:43:49;;;;;;;1.50;1.40;;;;;;;;;;4246747;33;20108;-65
2022/01/18 15:46:16;;;;;;;2.30;2.03;;;;;;;;;;4233821;33;20116;-66
2022/01/18 15:48:44;;;;;;;1.80;1.70;;;;;;;;;;4234328;33;20422;-68
2022/01/18 15:51:11;;;;;;;2.17;1.62;;;;;;;;;;4246686;33;20101;-64
2022/01/18 15:53:37;;;;;;;2.25;2.05;;;;;;;;;;4245922;33;20097;-66
2022/01/18 15:56:03;;;;;;;2.25;1.98;;;;;;;;;;4259773;33;20195;-66
2022/01/18 15:58:29;;;;;;;2.53;1.98;;;;;;;;;;4247875;33;20115;-64
2022/01/18 16:00:56;;;;;;;2.20;2.00;;;;;;;;;;4260536;33;20570;-64
2022/01/18 16:03:22;;;;;;;2.37;2.15;;;;;;;;;;4260497;33;20115;-64
2022/01/18 16:05:48;;;;;;;2.03;1.83;;;;;;;;;;4247795;33;20096;-64
2022/01/18 16:08:15;;;;;;;2.20;2.00;;;;;;;;;;4261079;33;20112;-62
2022/01/18 16:10:41;;;;;;;2.00;1.85;;;;;;;;;;4261120;33;20112;-64
2022/01/18 16:13:08;;;;;;;3.08;2.37;;;;;;;;;;4260680;33;20191;-63
2022/01/18 16:15:34;;;;;;;1.90;1.80;;;;;;;;;;4260932;33;20179;-63
2022/01/18 16:18:00;;;;;;;2.00;1.80;;;;;;;;;;4247958;33;20160;-63
2022/01/18 16:20:26;;;;;;;2.20;1.77;;;;;;;;;;4261423;33;20119;-62
2022/01/18 16:22:53;;;;;;;1.70;1.60;;;;;;;;;;4260700;33;20097;-61
2022/01/18 16:25:19;;;;;;;2.08;1.85;;;;;;;;;;4260977;33;20112;-70
2022/01/18 16:27:45;;;;;;;2.10;1.90;;;;;;;;;;4236104;33;20597;-70
2022/01/18 16:30:12;;;;;;;3.03;1.90;;;;;;;;;;4261231;33;20124;-69
2022/01/18 16:32:42;;;;;;;3.47;2.70;;;;;;;;;;4247814;33;20120;-67
2022/01/18 16:35:09;;;;;;;2.00;1.87;;;;;;;;;;4247950;33;20498;-67
2022/01/18 16:37:36;;;;;;;2.42;1.75;;;;;;;;;;4236108;33;20108;-65
2022/01/18 16:40:07;;;;;;;1.80;1.70;;;;;;;;;;4260349;33;20112;-67
2022/01/18 16:42:33;;;;;;;1.70;1.60;;;;;;;;;;4260712;33;20100;-68
2022/01/18 16:44:59;;;;;;;2.30;2.10;;;;;;;;;;4260558;33;20120;-68
2022/01/18 16:47:26;;;;;;;2.00;1.77;;;;;;;;;;4247455;33;20108;-67